createdAt,value
2019-01-21T06:53:56.134Z,25.10
2019-01-21T07:00:56.850Z,23.55
2019-01-21T07:24:05.377Z,24.18
2019-01-21T07:27:07.222Z,24.60
2019-01-21T07:30:35.755Z,22.75
2019-01-21T07:33:40.431Z,23.35
2019-01-21T07:36:56.740Z,23.20
2019-01-21T07:39:48.540Z,23.47
2019-01-21T07:43:21.931Z,24.05
2019-01-21T07:49:05.538Z,24.55
2019-01-21T07:52:14.866Z,23.57
2019-01-21T07:58:34.175Z,23.80
2019-01-21T08:01:31.838Z,22.40
2019-01-21T08:04:39.563Z,23.62
2019-01-21T08:07:30.159Z,25.37
2019-01-21T08:10:38.790Z,23.42
2019-01-21T08:13:52.127Z,24.75
2019-01-21T08:16:49.549Z,22.58
2019-01-21T08:19:46.957Z,22.25
2019-01-21T08:22:51.011Z,23.40
2019-01-21T08:25:57.783Z,21.37
2019-01-21T08:28:52.809Z,23.22
2019-01-21T08:31:43.934Z,24.32
2019-01-21T08:34:57.600Z,23.22
2019-01-21T08:37:55.240Z,21.57
2019-01-21T08:41:14.481Z,21.40
2019-01-21T08:44:24.580Z,22.10
2019-01-21T08:47:43.980Z,22.13
2019-01-21T08:50:29.541Z,22.62
2019-01-21T08:53:33.850Z,23.20
2019-01-21T08:56:45.605Z,20.88
2019-01-21T08:59:47.009Z,22.40
2019-01-21T09:02:30.923Z,21.10
2019-01-21T09:05:34.657Z,21.87
2019-01-21T09:08:37.757Z,20.25
2019-01-21T09:11:50.162Z,20.12
2019-01-21T09:14:44.887Z,20.80
2019-01-21T09:17:59.826Z,21.77
2019-01-21T09:21:33.523Z,21.10
2019-01-21T09:24:38.519Z,20.60
2019-01-21T09:27:37.596Z,19.85
2019-01-21T09:30:39.109Z,20.10
2019-01-21T09:34:10.852Z,19.70
2019-01-21T09:37:06.953Z,19.60
2019-01-21T09:40:26.340Z,20.02
2019-01-21T09:43:17.182Z,17.85
2019-01-21T09:46:16.920Z,16.90
2019-01-21T09:48:44.933Z,17.30
2019-01-21T09:51:14.584Z,17.45
2019-01-21T09:53:44.345Z,17.65
2019-01-21T09:56:13.362Z,17.70
2019-01-21T09:58:42.506Z,17.55
2019-01-21T10:01:11.405Z,17.20
2019-01-21T10:09:15.347Z,17.92
2019-01-21T10:11:57.661Z,17.37
2019-01-21T10:14:43.017Z,17.20
2019-01-21T10:17:29.506Z,17.17
2019-01-21T10:20:26.602Z,18.55
2019-01-21T10:23:21.901Z,17.98
2019-01-21T10:26:24.671Z,17.45
2019-01-21T10:29:01.777Z,16.50
2019-01-21T10:31:52.588Z,17.98
2019-01-21T10:34:27.280Z,17.32
2019-01-21T10:37:17.872Z,17.60
2019-01-21T10:40:07.996Z,18.10
2019-01-21T10:42:55.173Z,16.95
2019-01-21T10:45:49.107Z,17.02
2019-01-21T10:48:34.360Z,17.77
2019-01-21T10:51:13.291Z,17.67
2019-01-21T10:53:48.100Z,19.30
2019-01-21T10:56:23.295Z,17.30
2019-01-21T10:59:11.085Z,18.02
2019-01-21T11:01:51.138Z,18.30
2019-01-21T11:04:38.969Z,18.15
2019-01-21T11:07:21.549Z,18.48
2019-01-21T11:10:05.242Z,16.82
2019-01-21T11:12:55.465Z,18.50
2019-01-21T11:15:35.544Z,17.48
2019-01-21T11:18:29.241Z,17.92
2019-01-21T11:21:07.921Z,18.15
2019-01-21T11:23:58.530Z,19.20
2019-01-21T11:26:46.416Z,17.05
2019-01-21T11:29:34.296Z,18.40
2019-01-21T11:32:20.792Z,19.07
2019-01-21T11:34:56.679Z,17.42
2019-01-21T11:38:02.759Z,18.90
2019-01-21T11:40:35.198Z,18.67
2019-01-21T11:43:32.075Z,18.55
2019-01-21T11:46:18.369Z,19.00
2019-01-21T11:49:06.114Z,18.92
2019-01-21T11:51:56.227Z,16.77
2019-01-21T11:54:44.073Z,17.77
2019-01-21T11:57:20.749Z,16.85
2019-01-21T11:59:59.696Z,18.95
2019-01-21T12:02:53.625Z,19.00
2019-01-21T12:05:31.305Z,18.37
2019-01-21T12:08:17.499Z,18.52
2019-01-21T12:11:11.111Z,19.10
2019-01-21T12:13:54.707Z,17.87
2019-01-21T12:16:45.349Z,17.98
2019-01-21T12:19:39.274Z,18.05
2019-01-21T12:22:16.623Z,19.65
2019-01-21T12:24:48.225Z,18.35
2019-01-21T12:27:44.828Z,19.95
2019-01-21T12:30:20.503Z,17.87
2019-01-21T12:33:10.831Z,19.95
2019-01-21T12:35:48.574Z,19.40
2019-01-21T12:38:30.157Z,19.00
2019-01-21T12:41:33.280Z,18.45
2019-01-21T12:44:08.317Z,19.00
2019-01-21T12:47:02.348Z,19.42
2019-01-21T12:49:48.735Z,18.12
2019-01-21T12:52:39.437Z,19.57
2019-01-21T12:55:27.261Z,18.10
2019-01-21T12:58:13.686Z,19.12
2019-01-21T13:01:00.067Z,20.02
2019-01-21T13:03:56.921Z,20.00
2019-01-21T13:06:46.361Z,18.80
2019-01-21T13:09:40.325Z,18.67
2019-01-21T13:12:28.125Z,18.65
2019-01-21T13:15:16.043Z,19.70
2019-01-21T13:17:58.722Z,19.45
2019-01-21T13:20:49.294Z,18.98
2019-01-21T13:23:52.094Z,18.05
2019-01-21T13:26:38.600Z,19.05
2019-01-21T13:29:26.409Z,17.48
2019-01-21T13:32:17.289Z,18.15
2019-01-21T13:35:05.099Z,17.80
2019-01-21T13:37:43.097Z,18.00
2019-01-21T13:40:40.026Z,19.55
2019-01-21T13:43:16.162Z,17.05
2019-01-21T13:45:53.159Z,18.75
2019-01-21T13:48:26.349Z,19.42
2019-01-21T13:51:00.100Z,18.07
2019-01-21T13:53:46.441Z,18.60
2019-01-21T13:56:34.262Z,17.60
2019-01-21T13:59:20.871Z,18.80
2019-01-21T14:01:56.276Z,19.62
2019-01-21T14:04:45.644Z,17.05
2019-01-21T14:07:27.348Z,17.48
2019-01-21T14:10:19.017Z,18.07
2019-01-21T14:13:05.126Z,18.37
2019-01-21T14:15:39.028Z,18.77
2019-01-21T14:18:25.163Z,16.20
2019-01-21T14:21:08.802Z,18.00
2019-01-21T14:24:11.870Z,17.37
2019-01-21T14:27:00.140Z,17.85
2019-01-21T14:29:40.129Z,17.35
2019-01-21T14:32:18.533Z,18.05
2019-01-21T14:35:05.440Z,17.75
2019-01-21T14:37:40.158Z,19.40
2019-01-21T14:40:21.717Z,17.35
2019-01-21T14:43:08.382Z,17.80
2019-01-21T14:45:37.650Z,20.05
2019-01-21T14:48:34.631Z,18.65
2019-01-21T14:51:28.315Z,19.35
2019-01-21T14:54:14.281Z,17.95
2019-01-21T14:57:02.205Z,17.85
2019-01-21T14:59:41.872Z,17.45
2019-01-21T15:02:24.318Z,16.75
2019-01-21T15:05:12.244Z,17.20
2019-01-21T15:07:47.083Z,17.30
2019-01-21T15:10:23.809Z,18.48
2019-01-21T15:13:11.697Z,17.50
2019-01-21T15:16:08.720Z,17.87
2019-01-21T15:18:55.017Z,17.70
2019-01-21T15:21:42.952Z,16.55
2019-01-21T15:24:16.768Z,16.70
2019-01-21T15:27:04.690Z,17.40
2019-01-21T15:29:52.567Z,17.52
2019-01-21T15:32:35.395Z,17.07
2019-01-21T15:35:21.907Z,18.40
2019-01-21T15:38:15.882Z,17.48
2019-01-21T15:41:06.875Z,17.27
2019-01-21T15:43:46.967Z,18.75
2019-01-21T15:46:22.358Z,16.95
2019-01-21T15:49:16.304Z,18.75
2019-01-21T15:52:04.140Z,19.57
2019-01-21T15:54:43.183Z,18.48
2019-01-21T15:57:24.564Z,17.90
2019-01-21T16:00:18.265Z,19.15
2019-01-21T16:03:09.158Z,17.37
2019-01-21T16:05:42.989Z,18.10
2019-01-21T16:08:14.562Z,18.32
2019-01-21T16:10:49.363Z,19.67
2019-01-21T16:13:35.839Z,18.12
2019-01-21T16:16:41.729Z,18.90
2019-01-21T16:19:12.400Z,19.23
2019-01-21T16:22:00.367Z,18.82
2019-01-21T16:24:42.318Z,19.55
2019-01-21T16:27:31.293Z,17.48
2019-01-21T16:30:09.245Z,18.00
2019-01-21T16:32:57.190Z,19.73
2019-01-21T16:35:33.164Z,18.60
2019-01-21T16:38:07.479Z,19.50
2019-01-21T16:40:42.807Z,18.40
2019-01-21T16:43:11.652Z,17.48
2019-01-21T16:45:40.481Z,18.70
2019-01-21T16:48:09.370Z,19.50
2019-01-21T16:50:38.163Z,20.30
2019-01-21T16:58:39.818Z,19.50
2019-01-21T17:01:09.131Z,20.00
2019-01-21T17:03:37.953Z,18.67
2019-01-21T17:06:06.844Z,19.62
2019-01-21T17:08:35.548Z,18.00
2019-01-21T17:11:04.586Z,20.72
2019-01-21T17:13:33.330Z,18.17
2019-01-21T17:16:02.261Z,21.35
2019-01-21T17:18:31.135Z,20.80
2019-01-21T17:20:59.832Z,20.12
2019-01-21T17:23:28.802Z,22.58
2019-01-21T17:25:57.619Z,23.02
2019-01-21T17:28:36.883Z,20.20
2019-01-21T17:31:05.709Z,20.72
2019-01-21T17:33:34.642Z,28.35
2019-01-21T17:36:03.457Z,22.58
2019-01-21T17:38:32.307Z,22.25
2019-01-21T17:41:01.069Z,22.42
2019-01-21T17:43:29.819Z,23.38
2019-01-21T17:45:58.506Z,21.87
2019-01-21T17:48:27.181Z,21.42
2019-01-21T17:50:55.966Z,23.02
2019-01-21T17:53:24.765Z,23.83
2019-01-21T17:55:53.977Z,22.60
2019-01-21T17:58:23.256Z,24.82
2019-01-21T18:00:52.689Z,25.85
2019-01-21T18:03:21.567Z,25.25
2019-01-21T18:05:50.421Z,25.75
2019-01-21T18:08:19.256Z,26.45
2019-01-21T18:10:48.048Z,27.25
2019-01-21T18:13:17.829Z,27.10
2019-01-21T18:18:45.318Z,27.40
2019-01-21T18:21:14.182Z,27.25
2019-01-21T18:23:43.172Z,24.95
2019-01-21T18:26:13.997Z,26.12
2019-01-21T18:28:42.912Z,26.62
2019-01-21T18:31:11.877Z,27.82
2019-01-21T18:33:40.757Z,28.47
2019-01-21T18:36:09.575Z,27.80
2019-01-21T18:38:38.896Z,27.85
2019-01-21T18:41:07.937Z,28.27
2019-01-21T18:43:37.064Z,30.35
2019-01-21T18:46:06.278Z,31.33
2019-01-21T18:48:35.550Z,31.45
2019-01-21T18:51:06.719Z,29.00
2019-01-21T18:53:35.666Z,29.52
2019-01-21T18:56:04.917Z,29.15
2019-01-21T18:58:33.859Z,32.15
2019-01-21T19:01:02.983Z,28.77
2019-01-21T19:03:31.761Z,30.25
2019-01-21T19:06:00.727Z,28.50
2019-01-21T19:08:32.936Z,27.30
2019-01-21T19:11:07.273Z,28.50
2019-01-21T19:13:36.303Z,32.70
2019-01-21T19:16:05.413Z,28.42
2019-01-21T19:18:34.270Z,29.27
2019-01-21T19:21:04.283Z,32.65
2019-01-21T19:23:33.264Z,30.25
2019-01-21T19:26:02.677Z,30.05
2019-01-21T19:28:33.592Z,31.62
2019-01-21T19:31:03.783Z,31.25
2019-01-21T19:33:33.022Z,33.92
2019-01-21T19:36:03.475Z,32.50
2019-01-21T19:38:32.983Z,33.60
2019-01-21T19:41:04.210Z,29.63
2019-01-21T19:43:37.176Z,33.40
2019-01-21T19:46:11.782Z,32.08
2019-01-21T19:48:43.488Z,33.40
2019-01-21T19:51:13.636Z,34.18
2019-01-21T19:53:42.556Z,32.40
2019-01-21T19:56:12.019Z,32.33
2019-01-21T19:58:41.076Z,30.55
2019-01-21T20:01:10.333Z,32.25
2019-01-21T20:03:39.304Z,34.65
2019-01-21T20:06:08.204Z,33.73
2019-01-21T20:08:37.541Z,34.30
2019-01-21T20:11:06.698Z,35.45
2019-01-21T20:13:35.861Z,35.78
2019-01-21T20:16:04.817Z,32.45
2019-01-21T20:18:33.809Z,33.18
2019-01-21T20:21:02.741Z,33.53
2019-01-21T20:23:31.754Z,33.02
2019-01-21T20:26:00.873Z,33.35
2019-01-21T20:28:29.822Z,31.37
2019-01-21T20:30:58.606Z,31.73
2019-01-21T20:33:27.556Z,34.40
2019-01-21T20:35:56.482Z,32.83
2019-01-21T20:38:25.245Z,33.45
2019-01-21T20:40:54.264Z,31.82
2019-01-21T20:43:23.228Z,33.33
2019-01-21T20:45:52.885Z,32.80
2019-01-21T20:48:21.708Z,30.92
2019-01-21T20:50:50.675Z,33.30
2019-01-21T20:53:19.586Z,33.70
2019-01-21T20:55:48.482Z,34.35
2019-01-21T20:58:17.330Z,32.60
2019-01-21T21:00:46.327Z,34.00
2019-01-21T21:03:15.293Z,33.75
2019-01-21T21:05:44.450Z,33.30
2019-01-21T21:08:13.523Z,33.70
2019-01-21T21:10:42.595Z,32.33
2019-01-21T21:13:11.459Z,32.50
2019-01-21T21:15:40.382Z,31.20
2019-01-21T21:18:09.297Z,32.78
2019-01-21T21:20:38.194Z,36.90
2019-01-21T21:23:07.109Z,35.55
2019-01-21T21:25:35.950Z,33.98
2019-01-21T21:28:05.685Z,36.13
2019-01-21T21:30:35.235Z,33.70
2019-01-21T21:33:05.247Z,34.40
2019-01-21T21:35:34.753Z,36.05
2019-01-21T21:38:04.304Z,30.72
2019-01-21T21:40:33.873Z,32.30
2019-01-21T21:43:13.216Z,30.95
2019-01-21T21:45:42.734Z,32.67
2019-01-21T21:48:12.234Z,33.28
2019-01-21T21:50:41.805Z,31.97
2019-01-21T21:55:59.767Z,34.48
2019-01-21T21:58:29.460Z,31.48
2019-01-21T22:00:59.214Z,31.95
2019-01-21T22:03:28.647Z,31.10
2019-01-21T22:05:58.160Z,31.65
2019-01-21T22:08:27.605Z,35.33
2019-01-21T22:10:57.110Z,31.35
2019-01-21T22:13:26.571Z,31.97
2019-01-21T22:15:56.068Z,29.05
2019-01-21T22:18:25.576Z,29.65
2019-01-21T22:20:55.094Z,35.50
2019-01-21T22:23:24.581Z,31.10
2019-01-21T22:25:56.797Z,32.08
2019-01-21T22:28:26.219Z,31.45
2019-01-21T22:30:55.597Z,32.78
2019-01-21T22:33:25.084Z,33.10
2019-01-21T22:35:54.479Z,32.70
2019-01-21T22:38:23.863Z,32.42
2019-01-21T22:40:53.377Z,33.80
2019-01-21T22:43:22.805Z,34.23
2019-01-21T22:45:52.263Z,33.55
2019-01-21T22:48:21.574Z,32.35
2019-01-21T22:50:51.078Z,33.60
2019-01-21T22:53:20.462Z,32.15
2019-01-21T22:55:49.906Z,32.08
2019-01-21T22:58:19.338Z,32.15
2019-01-21T23:01:28.251Z,34.40
2019-01-21T23:03:57.831Z,30.45
2019-01-21T23:06:27.201Z,28.83
2019-01-21T23:08:56.689Z,31.95
2019-01-21T23:11:26.080Z,31.05
2019-01-21T23:13:55.523Z,30.90
2019-01-21T23:16:24.953Z,32.23
2019-01-21T23:18:54.413Z,32.83
2019-01-21T23:21:23.865Z,32.50
2019-01-21T23:23:53.389Z,34.38
2019-01-21T23:26:23.706Z,32.70
2019-01-21T23:28:53.114Z,32.23
2019-01-21T23:31:22.598Z,34.92
2019-01-21T23:33:52.013Z,32.67
2019-01-21T23:36:21.386Z,33.60
2019-01-21T23:38:50.840Z,33.45
2019-01-21T23:41:20.437Z,34.38
2019-01-21T23:43:49.829Z,34.13
2019-01-21T23:46:19.255Z,34.50
2019-01-21T23:48:48.684Z,32.60
2019-01-21T23:51:18.093Z,33.60
2019-01-21T23:53:47.756Z,36.68
2019-01-21T23:56:17.067Z,35.25
2019-01-21T23:58:45.830Z,34.53
